Thursday, May 24, 2018, 12:28 AM EDT
Back to Local

KWST, Westerly State Airport

Location: Westerly, RI, United States Lat: 41.35
Local Time: 12:28 AM EDT ( 4:28 GMT) Lon: -71.8
Time Zone: US/Eastern Elev: 82 ft

Show me the last for .
Show Decoded

2018-05-23 23:53 METAR KWST 240353Z AUTO VRB06KT 10SM CLR 22/10 A2996 RMK AO2 SLP145 T02170100 =
2018-05-23 22:53 METAR KWST 240253Z AUTO 30004KT 10SM CLR 21/11 A2995 RMK AO2 SLP142 T02110106
                 51015 =
2018-05-23 21:53 METAR KWST 240153Z AUTO 00000KT 10SM CLR 16/14 A2994 RMK AO2 SLP138 T01610139 =
2018-05-23 20:53 METAR KWST 240053Z AUTO 25003KT 10SM CLR 17/14 A2992 RMK AO2 SLP132 T01720139 =
2018-05-23 19:53 METAR KWST 232353Z AUTO 23005KT 10SM CLR 20/13 A2991 RMK AO2 SLP127 T02000133
                 10217 20200 53007 =
2018-05-23 18:53 METAR KWST 232253Z AUTO 23005KT 10SM CLR 20/14 A2989 RMK AO2 SLP122 T02000139 =
2018-05-23 17:53 METAR KWST 232153Z AUTO 23009KT 10SM CLR 21/14 A2989 RMK AO2 SLP120 T02110144 =
2018-05-23 16:53 METAR KWST 232053Z AUTO 23011KT 10SM CLR 22/15 A2989 RMK AO2 SLP120 T02170150
                 58004 =
2018-05-23 15:53 METAR KWST 231953Z AUTO 25010G19KT 10SM CLR 21/16 A2989 RMK AO2 SLP122 T02110161
                 =
2018-05-23 14:53 METAR KWST 231853Z AUTO 24013KT 10SM CLR 21/16 A2990 RMK AO2 SLP124 T02060161 =
2018-05-23 13:53 METAR KWST 231753Z AUTO 23009G16KT 10SM CLR 21/16 A2990 RMK AO2 SLP124 T02060161
                 10206 20139 58001 =
2018-05-23 12:53 METAR KWST 231653Z AUTO 24009KT 10SM CLR 19/16 A2990 RMK AO2 SLP125 T01940156 =
2018-05-23 11:53 METAR KWST 231553Z AUTO 25009KT 9SM SCT030 BKN110 19/16 A2990 RMK AO2 SLP126
                 T01890156 =
2018-05-23 11:50 METAR KWST 231550Z AUTO 24008KT 9SM SCT030 SCT110 19/16 A2990 RMK AO2 =
2018-05-23 11:14 METAR KWST 231514Z AUTO 24009KT 9SM SCT004 BKN026 BKN031 18/16 A2991 RMK AO2
                 T01780156 =
2018-05-23 10:53 METAR KWST 231453Z AUTO 23009KT 9SM OVC003 17/15 A2991 RMK AO2 SLP129 T01720150
                 50003 =
2018-05-23 09:53 METAR KWST 231353Z AUTO 24008KT 7SM OVC004 16/15 A2992 RMK AO2 SLP130 T01610150
                 =
2018-05-23 08:53 METAR KWST 231253Z AUTO 24004KT 5SM BR OVC003 16/15 A2991 RMK AO2 SLP127
                 T01560150 =
2018-05-23 08:37 METAR KWST 231237Z AUTO VRB03KT 5SM BR OVC003 16/15 A2991 RMK AO2 T01560150 =
2018-05-23 07:59 METAR KWST 231159Z AUTO 00000KT 3SM BR OVC002 14/14 A2990 RMK AO2 T01390139 =
2018-05-23 07:53 METAR KWST 231153Z AUTO 00000KT 1 3/4SM BR OVC001 14/14 A2990 RMK AO2 SLP125
                 60018 70045 T01390139 10139 20128 50000 =
2018-05-23 07:50 METAR KWST 231150Z AUTO VRB03KT 1 1/2SM BR OVC001 14/14 A2991 RMK AO2 =
2018-05-23 07:21 METAR KWST 231121Z AUTO 25005KT 1/2SM FG OVC001 13/13 A2990 RMK AO2 T01330133 =
2018-05-23 07:04 METAR KWST 231104Z AUTO 22004KT 1 3/4SM BR OVC002 13/13 A2990 RMK AO2 T01330133
                 =
2018-05-23 06:53 METAR KWST 231053Z AUTO 24004KT 3SM BR OVC002 13/13 A2991 RMK AO2 SLP126
                 T01330133 =
2018-05-23 06:07 METAR KWST 231007Z AUTO 00000KT 4SM BR OVC002 13/13 A2989 RMK AO2 T01330133 =
2018-05-23 05:53 METAR KWST 230953Z AUTO 23004KT 5SM BR BKN003 OVC007 13/13 A2990 RMK AO2 RAE53
                 SLP125 P0007 T01330133 =
2018-05-23 05:03 METAR KWST 230903Z AUTO 25003KT 3SM -RA BR BKN004 BKN007 OVC047 13/13 A2990 RMK
                 AO2 LTG DSNT E-SW P0003 T01330133 =
2018-05-23 04:53 METAR KWST 230853Z AUTO 22005KT 2SM VCTS RA BR BKN004 BKN047 OVC065 13/13 A2991
                 RMK AO2 LTG DSNT E-SW RAB16 TSB30E50 SLP128 P0011 60011 T01330128 55005 =
2018-05-23 04:51 METAR KWST 230851Z AUTO 21005KT 2SM VCTS RA BR BKN006 BKN047 OVC065 13/13 A2991
                 RMK AO2 LTG DSNT SE-SW RAB16 TSB30E50 P0010 =
2018-05-23 04:45 METAR KWST 230845Z AUTO 21005KT 1 3/4SM +TSRA BR SCT008 BKN047 OVC070 13/13
                 A2991 RMK AO2 LTG DSNT S AND SW RAB16 TSB30 P0008 T01330128 =
2018-05-23 04:40 METAR KWST 230840Z AUTO 00000KT 2 1/2SM TSRA BR SCT012 OVC060 13/13 A2990 RMK
                 AO2 LTG DSNT SW AND W RAB16 TSB30 P0004 T01330133 =
2018-05-23 04:36 METAR KWST 230836Z AUTO 00000KT 4SM -TSRA BR BKN012 BKN055 OVC075 13/13 A2990
                 RMK AO2 LTG DSNT SW AND W RAB16 TSB30 P0002 T01330133 =
2018-05-23 04:25 METAR KWST 230825Z AUTO 00000KT 6SM VCTS -RA BR BKN012 13/13 A2991 RMK AO2 LTG
                 DSNT SW AND W RAB16 P0001 T01330133 =
2018-05-23 03:53 METAR KWST 230753Z AUTO 26003KT 10SM OVC013 13/13 A2991 RMK AO2 LTG DSNT W
                 SLP127 T01330128 =
2018-05-23 02:53 METAR KWST 230653Z AUTO 26003KT 9SM OVC014 13/13 A2991 RMK AO2 SLP126 T01280128
                 =
2018-05-23 02:40 METAR KWST 230640Z AUTO 00000KT 8SM OVC014 13/13 A2990 RMK AO2 T01280128 =
2018-05-23 02:00 METAR KWST 230600Z AUTO 00000KT 8SM SCT009 OVC016 13/13 A2992 RMK AO2 T01280128
                 =
2018-05-23 01:53 METAR KWST 230553Z AUTO 00000KT 8SM BKN009 OVC017 13/13 A2993 RMK AO2 SLP133
                 60002 T01280128 10133 20122 58023 =
2018-05-23 01:43 METAR KWST 230543Z AUTO 00000KT 9SM BKN009 OVC019 13/12 A2993 RMK AO2 T01280122
                 =
2018-05-23 00:53 METAR KWST 230453Z AUTO 00000KT 8SM OVC012 13/12 A2995 RMK AO2 SLP143 T01280122
                 402170094 =

Support USWX by starting your Amazon purchase here.